FIN1847 EFHK-LATI
Flight info
| Callsign | FIN1847 |
|---|---|
| Flight time | 2h 59m |
| Altitude | 38000 |
| Route | KOIVU DCT LARTI DCT NAVOT DCT LUTAL DCT BERIL/N0450F370 DCT NAPOT/N0449F380 DCT SUWGI DCT UNPEG DCT XESNA DCT GERVI DCT VENES M857 OBOSO DCT LENOV DCT IBLIZ DCT PARAK DCT MODRA/N0448F390 DCT AKIKA DCT INLOT |
| Aircraft | A319/M-SDE3FGHIRWY/LB1 |
Departure
| Time | 2026-05-07 10:28 |
|---|---|
| Airport | Helsinki Vantaa Airport (EFHK) |
Arrival
| Time | 2026-05-07 13:27 |
|---|---|
| Airport | Tirana International Airport Mother Teresa (LATI) |
| Time | Latitude | Longitude | Altitude | Speed | Heading |
|---|---|---|---|---|---|
| 2026-05-07 10:03 | 60.31204 | 24.96189 | 188 ft | 0 kts | 137° |
| 2026-05-07 10:18 | 60.31214 | 24.96171 | 188 ft | 2 kts | 137° |
| 2026-05-07 10:18 | 60.31225 | 24.96150 | 188 ft | 2 kts | 137° |
| 2026-05-07 10:18 | 60.31236 | 24.96130 | 188 ft | 2 kts | 137° |
| 2026-05-07 10:18 | 60.31247 | 24.96109 | 188 ft | 2 kts | 137° |
| 2026-05-07 10:19 | 60.31259 | 24.96090 | 188 ft | 2 kts | 164° |
| 2026-05-07 10:19 | 60.31274 | 24.96090 | 188 ft | 2 kts | 199° |
| 2026-05-07 10:19 | 60.31283 | 24.96100 | 188 ft | 0 kts | 224° |
| 2026-05-07 10:19 | 60.31288 | 24.96111 | 189 ft | 0 kts | 229° |
| 2026-05-07 10:20 | 60.31288 | 24.96112 | 189 ft | 0 kts | 229° |
| 2026-05-07 10:21 | 60.31287 | 24.96108 | 188 ft | 1 kts | 228° |
| 2026-05-07 10:21 | 60.31269 | 24.96069 | 188 ft | 6 kts | 227° |
| 2026-05-07 10:22 | 60.31227 | 24.95974 | 188 ft | 11 kts | 239° |
| 2026-05-07 10:22 | 60.31232 | 24.95808 | 188 ft | 12 kts | 276° |
| 2026-05-07 10:22 | 60.31189 | 24.95656 | 188 ft | 12 kts | 227° |
| 2026-05-07 10:22 | 60.31175 | 24.95498 | 188 ft | 13 kts | 313° |
| 2026-05-07 10:23 | 60.31247 | 24.95365 | 188 ft | 15 kts | 317° |
| 2026-05-07 10:23 | 60.31332 | 24.95209 | 188 ft | 17 kts | 318° |
| 2026-05-07 10:23 | 60.31417 | 24.95041 | 188 ft | 17 kts | 312° |
| 2026-05-07 10:23 | 60.31513 | 24.95044 | 188 ft | 17 kts | 48° |
| 2026-05-07 10:24 | 60.31596 | 24.95226 | 188 ft | 17 kts | 48° |
| 2026-05-07 10:24 | 60.31680 | 24.95412 | 188 ft | 18 kts | 47° |
| 2026-05-07 10:24 | 60.31777 | 24.95624 | 188 ft | 21 kts | 47° |
| 2026-05-07 10:24 | 60.31876 | 24.95844 | 188 ft | 21 kts | 47° |
| 2026-05-07 10:25 | 60.31976 | 24.96064 | 188 ft | 21 kts | 47° |
| 2026-05-07 10:25 | 60.32074 | 24.96280 | 188 ft | 20 kts | 47° |
| 2026-05-07 10:25 | 60.32172 | 24.96496 | 188 ft | 20 kts | 47° |
| 2026-05-07 10:25 | 60.32260 | 24.96675 | 188 ft | 14 kts | 26° |
| 2026-05-07 10:26 | 60.32352 | 24.96610 | 188 ft | 14 kts | 328° |
| 2026-05-07 10:26 | 60.32412 | 24.96470 | 188 ft | 9 kts | 253° |
| 2026-05-07 10:26 | 60.32397 | 24.96426 | 188 ft | 0 kts | 227° |
| 2026-05-07 10:27 | 60.32380 | 24.96389 | 188 ft | 20 kts | 227° |
| 2026-05-07 10:27 | 60.32104 | 24.95783 | 189 ft | 95 kts | 227° |
| 2026-05-07 10:27 | 60.31509 | 24.94473 | 189 ft | 155 kts | 227° |
| 2026-05-07 10:27 | 60.30706 | 24.92736 | 594 ft | 172 kts | 227° |
| 2026-05-07 10:28 | 60.29853 | 24.91078 | 1266 ft | 175 kts | 218° |
| 2026-05-07 10:28 | 60.28806 | 24.89921 | 1996 ft | 177 kts | 204° |
| 2026-05-07 10:28 | 60.27638 | 24.88862 | 2482 ft | 195 kts | 207° |
| 2026-05-07 10:28 | 60.26378 | 24.87557 | 3000 ft | 212 kts | 209° |
| 2026-05-07 10:29 | 60.25042 | 24.86090 | 3515 ft | 230 kts | 210° |
| 2026-05-07 10:29 | 60.23564 | 24.84623 | 4070 ft | 247 kts | 201° |
| 2026-05-07 10:29 | 60.21902 | 24.83609 | 4956 ft | 250 kts | 194° |
| 2026-05-07 10:30 | 60.18525 | 24.82065 | 6672 ft | 256 kts | 192° |
| 2026-05-07 10:30 | 60.16780 | 24.81280 | 7509 ft | 259 kts | 192° |
| 2026-05-07 10:30 | 60.15045 | 24.80491 | 8343 ft | 261 kts | 192° |
| 2026-05-07 10:30 | 60.13250 | 24.79670 | 9014 ft | 272 kts | 192° |
| 2026-05-07 10:31 | 60.11353 | 24.78801 | 9545 ft | 287 kts | 192° |
| 2026-05-07 10:31 | 60.09406 | 24.77907 | 10302 ft | 293 kts | 192° |
| 2026-05-07 10:31 | 60.07416 | 24.76994 | 10882 ft | 305 kts | 192° |
| 2026-05-07 10:31 | 60.05298 | 24.76026 | 11280 ft | 322 kts | 192° |
| 2026-05-07 10:32 | 60.03037 | 24.74991 | 11644 ft | 340 kts | 193° |
| 2026-05-07 10:32 | 60.00713 | 24.73927 | 12150 ft | 351 kts | 193° |
| 2026-05-07 10:32 | 59.98318 | 24.72832 | 12903 ft | 354 kts | 193° |
| 2026-05-07 10:32 | 59.95917 | 24.71735 | 13687 ft | 355 kts | 193° |
| 2026-05-07 10:33 | 59.93533 | 24.70648 | 14425 ft | 357 kts | 193° |
| 2026-05-07 10:33 | 59.91113 | 24.69546 | 15145 ft | 358 kts | 194° |
| 2026-05-07 10:33 | 59.88694 | 24.68451 | 15830 ft | 360 kts | 194° |
| 2026-05-07 10:33 | 59.86246 | 24.67344 | 16471 ft | 363 kts | 195° |
| 2026-05-07 10:34 | 59.83782 | 24.66225 | 17088 ft | 366 kts | 195° |
| 2026-05-07 10:34 | 59.81274 | 24.65049 | 17701 ft | 369 kts | 196° |
| 2026-05-07 10:34 | 59.78780 | 24.63864 | 18305 ft | 372 kts | 197° |
| 2026-05-07 10:34 | 59.76271 | 24.62672 | 18912 ft | 373 kts | 197° |
| 2026-05-07 10:35 | 59.73730 | 24.61470 | 19511 ft | 375 kts | 197° |
| 2026-05-07 10:35 | 59.71187 | 24.60273 | 20095 ft | 377 kts | 197° |
| 2026-05-07 10:35 | 59.68653 | 24.59084 | 20650 ft | 378 kts | 197° |
| 2026-05-07 10:35 | 59.66079 | 24.57862 | 21198 ft | 380 kts | 198° |
| 2026-05-07 10:36 | 59.63549 | 24.56562 | 21723 ft | 381 kts | 199° |
| 2026-05-07 10:36 | 59.61003 | 24.55222 | 22235 ft | 382 kts | 199° |
| 2026-05-07 10:36 | 59.58435 | 24.53873 | 22734 ft | 384 kts | 200° |
| 2026-05-07 10:36 | 59.55854 | 24.52523 | 23221 ft | 385 kts | 200° |
| 2026-05-07 10:37 | 59.53289 | 24.51188 | 23691 ft | 386 kts | 200° |
| 2026-05-07 10:37 | 59.50699 | 24.49845 | 24155 ft | 388 kts | 200° |
| 2026-05-07 10:37 | 59.48098 | 24.48499 | 24605 ft | 389 kts | 200° |
| 2026-05-07 10:37 | 59.45473 | 24.47143 | 25046 ft | 390 kts | 200° |
| 2026-05-07 10:38 | 59.42839 | 24.45785 | 25483 ft | 391 kts | 200° |
| 2026-05-07 10:38 | 59.40211 | 24.44434 | 25914 ft | 393 kts | 200° |
| 2026-05-07 10:38 | 59.37577 | 24.43081 | 26356 ft | 394 kts | 200° |
| 2026-05-07 10:38 | 59.34906 | 24.41749 | 26782 ft | 396 kts | 199° |
| 2026-05-07 10:39 | 59.32201 | 24.40663 | 27203 ft | 400 kts | 196° |
| 2026-05-07 10:39 | 59.29462 | 24.39706 | 27631 ft | 401 kts | 196° |
| 2026-05-07 10:39 | 59.26713 | 24.38712 | 28028 ft | 402 kts | 197° |
| 2026-05-07 10:39 | 59.23978 | 24.37719 | 28400 ft | 404 kts | 197° |
| 2026-05-07 10:40 | 59.21230 | 24.36726 | 28780 ft | 405 kts | 197° |
| 2026-05-07 10:40 | 59.18466 | 24.35731 | 29173 ft | 405 kts | 197° |
| 2026-05-07 10:40 | 59.15709 | 24.34746 | 29631 ft | 403 kts | 196° |
| 2026-05-07 10:40 | 59.12952 | 24.33764 | 30123 ft | 401 kts | 196° |
| 2026-05-07 10:41 | 59.10236 | 24.32798 | 30603 ft | 399 kts | 196° |
| 2026-05-07 10:41 | 59.07514 | 24.31830 | 31087 ft | 397 kts | 196° |
| 2026-05-07 10:41 | 59.04843 | 24.30883 | 31568 ft | 395 kts | 196° |
| 2026-05-07 10:41 | 59.02146 | 24.29928 | 32039 ft | 393 kts | 196° |
| 2026-05-07 10:42 | 58.99452 | 24.28975 | 32501 ft | 391 kts | 196° |
| 2026-05-07 10:42 | 58.96813 | 24.28043 | 32930 ft | 389 kts | 196° |
| 2026-05-07 10:42 | 58.94141 | 24.27101 | 33302 ft | 388 kts | 196° |
| 2026-05-07 10:42 | 58.91508 | 24.26173 | 33634 ft | 387 kts | 196° |
| 2026-05-07 10:43 | 58.88866 | 24.25243 | 33946 ft | 387 kts | 197° |
| 2026-05-07 10:43 | 58.86247 | 24.24323 | 34269 ft | 386 kts | 197° |
| 2026-05-07 10:43 | 58.83613 | 24.23399 | 34582 ft | 386 kts | 197° |
| 2026-05-07 10:43 | 58.80969 | 24.22473 | 34886 ft | 385 kts | 197° |
| 2026-05-07 10:44 | 58.78365 | 24.21563 | 35175 ft | 385 kts | 197° |
| 2026-05-07 10:44 | 58.75753 | 24.20652 | 35443 ft | 385 kts | 197° |
| 2026-05-07 10:44 | 58.73117 | 24.19733 | 35672 ft | 385 kts | 197° |
| 2026-05-07 10:44 | 58.70509 | 24.18825 | 35883 ft | 385 kts | 197° |
| 2026-05-07 10:45 | 58.67878 | 24.17911 | 36084 ft | 385 kts | 196° |
| 2026-05-07 10:45 | 58.65229 | 24.16992 | 36256 ft | 385 kts | 196° |
| 2026-05-07 10:45 | 58.62619 | 24.16087 | 36368 ft | 386 kts | 196° |
| 2026-05-07 10:45 | 58.59981 | 24.15175 | 36464 ft | 388 kts | 196° |
| 2026-05-07 10:46 | 58.54684 | 24.13347 | 36647 ft | 391 kts | 196° |
| 2026-05-07 10:46 | 58.49314 | 24.11501 | 36851 ft | 393 kts | 196° |
| 2026-05-07 10:47 | 58.43953 | 24.09665 | 37039 ft | 395 kts | 196° |
| 2026-05-07 10:47 | 58.38579 | 24.07831 | 37189 ft | 396 kts | 196° |
| 2026-05-07 10:48 | 58.33130 | 24.05975 | 37344 ft | 398 kts | 196° |
| 2026-05-07 10:48 | 58.27706 | 24.04132 | 37488 ft | 400 kts | 195° |
| 2026-05-07 10:49 | 58.22245 | 24.02284 | 37615 ft | 402 kts | 195° |
| 2026-05-07 10:49 | 58.16734 | 24.00426 | 37746 ft | 404 kts | 195° |
| 2026-05-07 10:50 | 58.11210 | 23.98569 | 37869 ft | 405 kts | 195° |
| 2026-05-07 10:50 | 58.05712 | 23.96726 | 37972 ft | 406 kts | 195° |
| 2026-05-07 10:51 | 58.00147 | 23.94868 | 38004 ft | 408 kts | 195° |
| 2026-05-07 10:51 | 57.94566 | 23.93010 | 38008 ft | 409 kts | 195° |
| 2026-05-07 10:52 | 57.89001 | 23.91163 | 38010 ft | 409 kts | 195° |
| 2026-05-07 10:52 | 57.83398 | 23.89311 | 38012 ft | 409 kts | 195° |
| 2026-05-07 10:53 | 57.77806 | 23.87471 | 38011 ft | 409 kts | 195° |
| 2026-05-07 10:53 | 57.72223 | 23.85638 | 38009 ft | 409 kts | 195° |
| 2026-05-07 10:54 | 57.66646 | 23.83811 | 38007 ft | 409 kts | 195° |
| 2026-05-07 10:54 | 57.61073 | 23.81991 | 38005 ft | 409 kts | 195° |
| 2026-05-07 10:55 | 57.55454 | 23.80161 | 38003 ft | 410 kts | 195° |
| 2026-05-07 10:55 | 57.49884 | 23.78353 | 38002 ft | 410 kts | 195° |
| 2026-05-07 10:56 | 57.44282 | 23.76540 | 38000 ft | 410 kts | 195° |
| 2026-05-07 10:56 | 57.38678 | 23.74731 | 37999 ft | 410 kts | 195° |
| 2026-05-07 10:57 | 57.33083 | 23.72931 | 37996 ft | 410 kts | 195° |
| 2026-05-07 10:57 | 57.27473 | 23.71132 | 37994 ft | 410 kts | 195° |
| 2026-05-07 10:58 | 57.21887 | 23.69348 | 37992 ft | 410 kts | 195° |
| 2026-05-07 10:58 | 57.16283 | 23.67562 | 37991 ft | 410 kts | 195° |
| 2026-05-07 10:59 | 57.10714 | 23.65793 | 37989 ft | 410 kts | 195° |
| 2026-05-07 10:59 | 57.05084 | 23.64009 | 37987 ft | 410 kts | 195° |
| 2026-05-07 11:00 | 56.99483 | 23.62240 | 37986 ft | 410 kts | 194° |
| 2026-05-07 11:00 | 56.93888 | 23.60479 | 37985 ft | 410 kts | 194° |
| 2026-05-07 11:01 | 56.88286 | 23.58722 | 37985 ft | 410 kts | 194° |
| 2026-05-07 11:01 | 56.82718 | 23.56979 | 37983 ft | 410 kts | 194° |
| 2026-05-07 11:02 | 56.77077 | 23.55218 | 37982 ft | 410 kts | 194° |
| 2026-05-07 11:02 | 56.71489 | 23.53480 | 37980 ft | 410 kts | 194° |
| 2026-05-07 11:03 | 56.65839 | 23.51728 | 37979 ft | 410 kts | 194° |
| 2026-05-07 11:03 | 56.60223 | 23.49991 | 37976 ft | 410 kts | 194° |
| 2026-05-07 11:04 | 56.54600 | 23.48257 | 37974 ft | 411 kts | 194° |
| 2026-05-07 11:04 | 56.48989 | 23.46531 | 37971 ft | 411 kts | 194° |
| 2026-05-07 11:05 | 56.43375 | 23.44809 | 37968 ft | 411 kts | 194° |
| 2026-05-07 11:05 | 56.37745 | 23.43096 | 37966 ft | 411 kts | 194° |
| 2026-05-07 11:06 | 56.32058 | 23.41896 | 37966 ft | 413 kts | 191° |
| 2026-05-07 11:06 | 56.26380 | 23.40820 | 37964 ft | 412 kts | 191° |
| 2026-05-07 11:07 | 56.20652 | 23.39736 | 37960 ft | 413 kts | 191° |
| 2026-05-07 11:07 | 56.14932 | 23.38666 | 37957 ft | 413 kts | 191° |
| 2026-05-07 11:08 | 56.09241 | 23.37607 | 37955 ft | 413 kts | 191° |
| 2026-05-07 11:08 | 56.03561 | 23.36555 | 37952 ft | 413 kts | 191° |
| 2026-05-07 11:09 | 55.97847 | 23.35499 | 37957 ft | 412 kts | 191° |
| 2026-05-07 11:09 | 55.92135 | 23.34446 | 37975 ft | 413 kts | 190° |
| 2026-05-07 11:10 | 55.86449 | 23.33401 | 37971 ft | 412 kts | 190° |
| 2026-05-07 11:10 | 55.80726 | 23.32352 | 37951 ft | 413 kts | 190° |
| 2026-05-07 11:11 | 55.75020 | 23.31309 | 37946 ft | 413 kts | 190° |
| 2026-05-07 11:11 | 55.69315 | 23.30271 | 37944 ft | 413 kts | 190° |
| 2026-05-07 11:12 | 55.63587 | 23.29231 | 37944 ft | 413 kts | 190° |
| 2026-05-07 11:12 | 55.57899 | 23.28202 | 37944 ft | 413 kts | 190° |
| 2026-05-07 11:13 | 55.52181 | 23.27169 | 37944 ft | 413 kts | 190° |
| 2026-05-07 11:13 | 55.46473 | 23.26142 | 37944 ft | 413 kts | 190° |
| 2026-05-07 11:14 | 55.40790 | 23.24929 | 37944 ft | 410 kts | 193° |
| 2026-05-07 11:14 | 55.35159 | 23.23403 | 37944 ft | 410 kts | 193° |
| 2026-05-07 11:15 | 55.29523 | 23.21907 | 37944 ft | 410 kts | 193° |
| 2026-05-07 11:15 | 55.23901 | 23.20408 | 37944 ft | 410 kts | 193° |
| 2026-05-07 11:16 | 55.18259 | 23.18905 | 37943 ft | 410 kts | 193° |
| 2026-05-07 11:16 | 55.12588 | 23.17396 | 37942 ft | 410 kts | 193° |
| 2026-05-07 11:17 | 55.06931 | 23.15895 | 37941 ft | 410 kts | 193° |
| 2026-05-07 11:17 | 55.01294 | 23.14403 | 37939 ft | 410 kts | 193° |
| 2026-05-07 11:18 | 54.95655 | 23.12915 | 37937 ft | 410 kts | 193° |
| 2026-05-07 11:18 | 54.90039 | 23.11437 | 37935 ft | 410 kts | 193° |
| 2026-05-07 11:19 | 54.84351 | 23.09944 | 37935 ft | 410 kts | 193° |
| 2026-05-07 11:19 | 54.78732 | 23.08474 | 37930 ft | 410 kts | 193° |
| 2026-05-07 11:20 | 54.73116 | 23.07008 | 37924 ft | 410 kts | 193° |
| 2026-05-07 11:20 | 54.67446 | 23.05531 | 37921 ft | 410 kts | 193° |
| 2026-05-07 11:21 | 54.61823 | 23.04071 | 37919 ft | 411 kts | 193° |
| 2026-05-07 11:21 | 54.56164 | 23.02607 | 37917 ft | 410 kts | 193° |
| 2026-05-07 11:22 | 54.50541 | 23.01156 | 37916 ft | 410 kts | 193° |
| 2026-05-07 11:22 | 54.44867 | 22.99695 | 37914 ft | 409 kts | 193° |
| 2026-05-07 11:23 | 54.39245 | 22.98252 | 37913 ft | 409 kts | 193° |
| 2026-05-07 11:23 | 54.33624 | 22.96812 | 37911 ft | 410 kts | 193° |
| 2026-05-07 11:24 | 54.28005 | 22.95377 | 37910 ft | 410 kts | 193° |
| 2026-05-07 11:24 | 54.22352 | 22.93937 | 37910 ft | 410 kts | 193° |
| 2026-05-07 11:25 | 54.16709 | 22.92505 | 37911 ft | 410 kts | 193° |
| 2026-05-07 11:25 | 54.11101 | 22.91083 | 37911 ft | 410 kts | 193° |
| 2026-05-07 11:26 | 54.05505 | 22.89469 | 37910 ft | 407 kts | 196° |
| 2026-05-07 11:26 | 54.00017 | 22.87362 | 37909 ft | 407 kts | 196° |
| 2026-05-07 11:27 | 53.94526 | 22.85289 | 37919 ft | 407 kts | 196° |
| 2026-05-07 11:27 | 53.89010 | 22.83203 | 37937 ft | 407 kts | 196° |
| 2026-05-07 11:28 | 53.83503 | 22.81121 | 37927 ft | 407 kts | 196° |
| 2026-05-07 11:28 | 53.77996 | 22.79044 | 37907 ft | 407 kts | 196° |
| 2026-05-07 11:29 | 53.72503 | 22.76978 | 37902 ft | 406 kts | 196° |
| 2026-05-07 11:29 | 53.66990 | 22.74907 | 37902 ft | 406 kts | 196° |
| 2026-05-07 11:30 | 53.61512 | 22.72855 | 37902 ft | 406 kts | 196° |
| 2026-05-07 11:30 | 53.56018 | 22.70803 | 37903 ft | 406 kts | 196° |
| 2026-05-07 11:31 | 53.50509 | 22.68750 | 37904 ft | 406 kts | 196° |
| 2026-05-07 11:31 | 53.44961 | 22.66688 | 37904 ft | 406 kts | 196° |
| 2026-05-07 11:32 | 53.36730 | 22.63639 | 37903 ft | 406 kts | 196° |
| 2026-05-07 11:33 | 53.31217 | 22.61603 | 37902 ft | 406 kts | 196° |
| 2026-05-07 11:33 | 53.25716 | 22.59578 | 37902 ft | 406 kts | 196° |
| 2026-05-07 11:34 | 53.20198 | 22.57555 | 37904 ft | 406 kts | 196° |
| 2026-05-07 11:34 | 53.14704 | 22.55546 | 37905 ft | 406 kts | 196° |
| 2026-05-07 11:35 | 53.09194 | 22.53533 | 37907 ft | 406 kts | 196° |
| 2026-05-07 11:35 | 53.03653 | 22.51515 | 37908 ft | 407 kts | 196° |
| 2026-05-07 11:36 | 52.98130 | 22.49508 | 37910 ft | 407 kts | 196° |
| 2026-05-07 11:36 | 52.92627 | 22.47512 | 37911 ft | 407 kts | 196° |
| 2026-05-07 11:37 | 52.87118 | 22.45520 | 37912 ft | 407 kts | 196° |
| 2026-05-07 11:37 | 52.81598 | 22.43529 | 37912 ft | 407 kts | 196° |
| 2026-05-07 11:38 | 52.76067 | 22.41539 | 37913 ft | 407 kts | 196° |
| 2026-05-07 11:38 | 52.70543 | 22.39558 | 37915 ft | 407 kts | 196° |
| 2026-05-07 11:39 | 52.65021 | 22.37581 | 37920 ft | 407 kts | 196° |
| 2026-05-07 11:39 | 52.59520 | 22.35617 | 37924 ft | 407 kts | 196° |
| 2026-05-07 11:40 | 52.54026 | 22.33661 | 37926 ft | 407 kts | 195° |
| 2026-05-07 11:40 | 52.48470 | 22.31685 | 37925 ft | 407 kts | 195° |
| 2026-05-07 11:41 | 52.42980 | 22.29740 | 37925 ft | 407 kts | 195° |
| 2026-05-07 11:41 | 52.37442 | 22.27787 | 37925 ft | 408 kts | 195° |
| 2026-05-07 11:42 | 52.31908 | 22.25841 | 37927 ft | 407 kts | 195° |
| 2026-05-07 11:42 | 52.26388 | 22.23900 | 37928 ft | 407 kts | 195° |
| 2026-05-07 11:43 | 52.20858 | 22.21958 | 37929 ft | 407 kts | 195° |
| 2026-05-07 11:43 | 52.15321 | 22.20027 | 37929 ft | 407 kts | 194° |
| 2026-05-07 11:44 | 52.09771 | 22.18353 | 37928 ft | 408 kts | 193° |
| 2026-05-07 11:44 | 52.04191 | 22.16742 | 37926 ft | 408 kts | 193° |
| 2026-05-07 11:45 | 51.98622 | 22.15124 | 37919 ft | 408 kts | 193° |
| 2026-05-07 11:45 | 51.93008 | 22.13488 | 37914 ft | 407 kts | 193° |
| 2026-05-07 11:46 | 51.87432 | 22.11861 | 37915 ft | 408 kts | 193° |
| 2026-05-07 11:46 | 51.81852 | 22.10236 | 37914 ft | 408 kts | 193° |
| 2026-05-07 11:47 | 51.76273 | 22.08616 | 37913 ft | 408 kts | 193° |
| 2026-05-07 11:47 | 51.70722 | 22.07009 | 37913 ft | 408 kts | 193° |
| 2026-05-07 11:48 | 51.65105 | 22.05386 | 37912 ft | 409 kts | 193° |
| 2026-05-07 11:48 | 51.59526 | 22.03780 | 37912 ft | 409 kts | 193° |
| 2026-05-07 11:49 | 51.53941 | 22.02175 | 37911 ft | 409 kts | 193° |
| 2026-05-07 11:49 | 51.48341 | 22.00570 | 37910 ft | 409 kts | 193° |
| 2026-05-07 11:50 | 51.42726 | 21.98965 | 37909 ft | 409 kts | 193° |
| 2026-05-07 11:50 | 51.37129 | 21.97369 | 37900 ft | 409 kts | 193° |
| 2026-05-07 11:51 | 51.31516 | 21.95773 | 37898 ft | 409 kts | 193° |
| 2026-05-07 11:51 | 51.25940 | 21.94188 | 37905 ft | 409 kts | 193° |
| 2026-05-07 11:52 | 51.20303 | 21.92591 | 37907 ft | 409 kts | 193° |
| 2026-05-07 11:52 | 51.14704 | 21.91011 | 37907 ft | 409 kts | 193° |
| 2026-05-07 11:53 | 51.09104 | 21.89439 | 37908 ft | 410 kts | 193° |
| 2026-05-07 11:53 | 51.03486 | 21.87868 | 37908 ft | 410 kts | 193° |
| 2026-05-07 11:54 | 50.97856 | 21.86292 | 37909 ft | 410 kts | 193° |
| 2026-05-07 11:54 | 50.92239 | 21.84724 | 37911 ft | 411 kts | 193° |
| 2026-05-07 11:55 | 50.86614 | 21.83157 | 37912 ft | 411 kts | 193° |
| 2026-05-07 11:55 | 50.81014 | 21.81602 | 37912 ft | 411 kts | 193° |
| 2026-05-07 11:56 | 50.75366 | 21.80036 | 37912 ft | 411 kts | 193° |
| 2026-05-07 11:56 | 50.69746 | 21.78483 | 37911 ft | 411 kts | 193° |
| 2026-05-07 11:57 | 50.64106 | 21.76806 | 37911 ft | 411 kts | 196° |
| 2026-05-07 11:57 | 50.58624 | 21.74346 | 37911 ft | 409 kts | 201° |
| 2026-05-07 11:58 | 50.53236 | 21.71149 | 37911 ft | 409 kts | 203° |
| 2026-05-07 11:58 | 50.47920 | 21.67968 | 37911 ft | 410 kts | 203° |
| 2026-05-07 11:59 | 50.42578 | 21.64773 | 37912 ft | 410 kts | 203° |
| 2026-05-07 11:59 | 50.37265 | 21.61594 | 37913 ft | 410 kts | 203° |
| 2026-05-07 12:00 | 50.31949 | 21.58420 | 37914 ft | 410 kts | 203° |
| 2026-05-07 12:00 | 50.26629 | 21.55250 | 37915 ft | 411 kts | 203° |
| 2026-05-07 12:01 | 50.21262 | 21.52061 | 37917 ft | 411 kts | 203° |
| 2026-05-07 12:01 | 50.15939 | 21.48907 | 37918 ft | 411 kts | 203° |
| 2026-05-07 12:02 | 50.10606 | 21.45754 | 37919 ft | 411 kts | 203° |
| 2026-05-07 12:02 | 50.05257 | 21.42598 | 37920 ft | 411 kts | 203° |
| 2026-05-07 12:03 | 49.99917 | 21.39455 | 37922 ft | 411 kts | 203° |
| 2026-05-07 12:03 | 49.94588 | 21.36326 | 37929 ft | 411 kts | 203° |
| 2026-05-07 12:04 | 49.89222 | 21.33184 | 37935 ft | 411 kts | 202° |
| 2026-05-07 12:04 | 49.83887 | 21.30063 | 37932 ft | 411 kts | 202° |
| 2026-05-07 12:05 | 49.78531 | 21.26941 | 37934 ft | 411 kts | 202° |
| 2026-05-07 12:05 | 49.73220 | 21.23853 | 37939 ft | 411 kts | 202° |
| 2026-05-07 12:06 | 49.67862 | 21.20742 | 37946 ft | 411 kts | 202° |
| 2026-05-07 12:06 | 49.62506 | 21.17641 | 37954 ft | 411 kts | 202° |
| 2026-05-07 12:07 | 49.57184 | 21.14566 | 37960 ft | 410 kts | 202° |
| 2026-05-07 12:07 | 49.51854 | 21.11493 | 37966 ft | 410 kts | 202° |
| 2026-05-07 12:08 | 49.46496 | 21.08410 | 37971 ft | 410 kts | 202° |
| 2026-05-07 12:08 | 49.41179 | 21.05359 | 37969 ft | 409 kts | 202° |
| 2026-05-07 12:09 | 49.35836 | 21.02467 | 37980 ft | 407 kts | 199° |
| 2026-05-07 12:09 | 49.30331 | 21.00368 | 38009 ft | 408 kts | 194° |
| 2026-05-07 12:10 | 49.24717 | 20.98994 | 38032 ft | 409 kts | 192° |
| 2026-05-07 12:10 | 49.19104 | 20.97665 | 38035 ft | 409 kts | 192° |
| 2026-05-07 12:11 | 49.13493 | 20.96346 | 38023 ft | 409 kts | 192° |
| 2026-05-07 12:11 | 49.07888 | 20.95038 | 38006 ft | 409 kts | 192° |
| 2026-05-07 12:12 | 49.02250 | 20.93727 | 37992 ft | 409 kts | 192° |
| 2026-05-07 12:12 | 48.96625 | 20.92424 | 37983 ft | 409 kts | 192° |
| 2026-05-07 12:13 | 48.91005 | 20.91124 | 37984 ft | 409 kts | 192° |
| 2026-05-07 12:13 | 48.85362 | 20.89823 | 37980 ft | 409 kts | 192° |
| 2026-05-07 12:14 | 48.79742 | 20.88531 | 37943 ft | 409 kts | 192° |
| 2026-05-07 12:14 | 48.74104 | 20.87237 | 37884 ft | 409 kts | 192° |
| 2026-05-07 12:15 | 48.68509 | 20.85955 | 37900 ft | 409 kts | 192° |
| 2026-05-07 12:15 | 48.62855 | 20.84663 | 37953 ft | 409 kts | 192° |
| 2026-05-07 12:16 | 48.57228 | 20.83380 | 37978 ft | 410 kts | 192° |
| 2026-05-07 12:16 | 48.51615 | 20.82102 | 37989 ft | 410 kts | 192° |
| 2026-05-07 12:17 | 48.45978 | 20.80822 | 37990 ft | 409 kts | 192° |
| 2026-05-07 12:17 | 48.40364 | 20.79549 | 37982 ft | 409 kts | 192° |
| 2026-05-07 12:18 | 48.34758 | 20.78282 | 37979 ft | 409 kts | 192° |
| 2026-05-07 12:18 | 48.29196 | 20.76809 | 37975 ft | 408 kts | 195° |
| 2026-05-07 12:19 | 48.23663 | 20.74980 | 37973 ft | 408 kts | 195° |
| 2026-05-07 12:19 | 48.18126 | 20.73171 | 37975 ft | 408 kts | 195° |
| 2026-05-07 12:20 | 48.12598 | 20.71363 | 37978 ft | 408 kts | 195° |
| 2026-05-07 12:20 | 48.07062 | 20.69553 | 37983 ft | 408 kts | 195° |
| 2026-05-07 12:21 | 48.01504 | 20.67738 | 37988 ft | 407 kts | 195° |
| 2026-05-07 12:21 | 47.95991 | 20.65943 | 37992 ft | 407 kts | 195° |
| 2026-05-07 12:22 | 47.90449 | 20.64142 | 37993 ft | 407 kts | 195° |
| 2026-05-07 12:22 | 47.84937 | 20.62353 | 37998 ft | 407 kts | 195° |
| 2026-05-07 12:23 | 47.79385 | 20.60554 | 38000 ft | 408 kts | 195° |
| 2026-05-07 12:23 | 47.73866 | 20.58771 | 37994 ft | 408 kts | 195° |
| 2026-05-07 12:24 | 47.68309 | 20.56980 | 37994 ft | 408 kts | 195° |
| 2026-05-07 12:24 | 47.62793 | 20.55205 | 37997 ft | 409 kts | 195° |
| 2026-05-07 12:25 | 47.57255 | 20.53427 | 38001 ft | 409 kts | 195° |
| 2026-05-07 12:25 | 47.51708 | 20.51650 | 38005 ft | 409 kts | 195° |
| 2026-05-07 12:26 | 47.46164 | 20.49878 | 38005 ft | 409 kts | 195° |
| 2026-05-07 12:26 | 47.40630 | 20.48114 | 38004 ft | 409 kts | 195° |
| 2026-05-07 12:27 | 47.35057 | 20.46338 | 38003 ft | 409 kts | 195° |
| 2026-05-07 12:27 | 47.29530 | 20.44581 | 38002 ft | 409 kts | 195° |
| 2026-05-07 12:28 | 47.23969 | 20.42818 | 38000 ft | 408 kts | 195° |
| 2026-05-07 12:28 | 47.18453 | 20.41073 | 37998 ft | 409 kts | 195° |
| 2026-05-07 12:29 | 47.12888 | 20.39316 | 37997 ft | 409 kts | 195° |
| 2026-05-07 12:29 | 47.07350 | 20.37572 | 37995 ft | 409 kts | 195° |
| 2026-05-07 12:30 | 47.01761 | 20.35814 | 37994 ft | 410 kts | 195° |
| 2026-05-07 12:30 | 46.96209 | 20.34077 | 37994 ft | 410 kts | 194° |
| 2026-05-07 12:31 | 46.90636 | 20.32335 | 37994 ft | 410 kts | 194° |
| 2026-05-07 12:31 | 46.85074 | 20.30599 | 37996 ft | 410 kts | 194° |
| 2026-05-07 12:32 | 46.79505 | 20.28863 | 37997 ft | 410 kts | 194° |
| 2026-05-07 12:32 | 46.73953 | 20.27136 | 37999 ft | 410 kts | 194° |
| 2026-05-07 12:33 | 46.65608 | 20.24548 | 38002 ft | 411 kts | 194° |
| 2026-05-07 12:33 | 46.60007 | 20.22815 | 38004 ft | 411 kts | 194° |
| 2026-05-07 12:34 | 46.54431 | 20.21094 | 38006 ft | 410 kts | 194° |
| 2026-05-07 12:34 | 46.48890 | 20.19386 | 38005 ft | 410 kts | 194° |
| 2026-05-07 12:35 | 46.43313 | 20.17671 | 38004 ft | 410 kts | 194° |
| 2026-05-07 12:35 | 46.37738 | 20.15960 | 38004 ft | 410 kts | 194° |
| 2026-05-07 12:36 | 46.32164 | 20.14253 | 38005 ft | 410 kts | 194° |
| 2026-05-07 12:36 | 46.26588 | 20.12548 | 38007 ft | 410 kts | 194° |
| 2026-05-07 12:37 | 46.21035 | 20.10853 | 38008 ft | 410 kts | 194° |
| 2026-05-07 12:37 | 46.15457 | 20.09323 | 38010 ft | 411 kts | 190° |
| 2026-05-07 12:38 | 46.09767 | 20.08345 | 38011 ft | 411 kts | 189° |
| 2026-05-07 12:38 | 46.04114 | 20.07384 | 38012 ft | 411 kts | 189° |
| 2026-05-07 12:39 | 45.98460 | 20.06427 | 38012 ft | 411 kts | 189° |
| 2026-05-07 12:39 | 45.92780 | 20.05471 | 37732 ft | 411 kts | 189° |
| 2026-05-07 12:40 | 45.89906 | 20.04989 | 37523 ft | 411 kts | 189° |
| 2026-05-07 12:40 | 45.87095 | 20.04518 | 37297 ft | 410 kts | 189° |
| 2026-05-07 12:40 | 45.84272 | 20.04046 | 37080 ft | 410 kts | 189° |
| 2026-05-07 12:40 | 45.81442 | 20.03571 | 37007 ft | 409 kts | 189° |
| 2026-05-07 12:41 | 45.75768 | 20.02620 | 36981 ft | 409 kts | 189° |
| 2026-05-07 12:41 | 45.70146 | 20.01682 | 36973 ft | 409 kts | 189° |
| 2026-05-07 12:42 | 45.64488 | 20.00741 | 37001 ft | 408 kts | 189° |
| 2026-05-07 12:42 | 45.58860 | 19.99807 | 37021 ft | 409 kts | 188° |
| 2026-05-07 12:43 | 45.53213 | 19.98872 | 37024 ft | 409 kts | 188° |
| 2026-05-07 12:43 | 45.47578 | 19.97946 | 37022 ft | 409 kts | 189° |
| 2026-05-07 12:44 | 45.41920 | 19.97015 | 37022 ft | 409 kts | 189° |
| 2026-05-07 12:44 | 45.36250 | 19.96082 | 37023 ft | 409 kts | 189° |
| 2026-05-07 12:45 | 45.30630 | 19.95159 | 37024 ft | 409 kts | 189° |
| 2026-05-07 12:45 | 45.24951 | 19.94228 | 37024 ft | 409 kts | 189° |
| 2026-05-07 12:46 | 45.19297 | 19.93303 | 37024 ft | 409 kts | 189° |
| 2026-05-07 12:46 | 45.13611 | 19.92374 | 37023 ft | 410 kts | 189° |
| 2026-05-07 12:47 | 45.07968 | 19.91455 | 37023 ft | 410 kts | 189° |
| 2026-05-07 12:47 | 45.02304 | 19.90534 | 37021 ft | 410 kts | 189° |
| 2026-05-07 12:48 | 44.96652 | 19.89617 | 37020 ft | 410 kts | 189° |
| 2026-05-07 12:48 | 44.91003 | 19.88702 | 37019 ft | 410 kts | 189° |
| 2026-05-07 12:49 | 44.85327 | 19.87783 | 37020 ft | 410 kts | 189° |
| 2026-05-07 12:49 | 44.79667 | 19.86872 | 37019 ft | 411 kts | 189° |
| 2026-05-07 12:50 | 44.74014 | 19.85964 | 37019 ft | 411 kts | 189° |
| 2026-05-07 12:50 | 44.68314 | 19.85049 | 37021 ft | 411 kts | 189° |
| 2026-05-07 12:51 | 44.62633 | 19.84139 | 37023 ft | 411 kts | 189° |
| 2026-05-07 12:51 | 44.56956 | 19.83231 | 37025 ft | 411 kts | 189° |
| 2026-05-07 12:52 | 44.51304 | 19.82329 | 37029 ft | 411 kts | 189° |
| 2026-05-07 12:52 | 44.45594 | 19.81418 | 37033 ft | 411 kts | 189° |
| 2026-05-07 12:53 | 44.39945 | 19.80520 | 37039 ft | 411 kts | 189° |
| 2026-05-07 12:53 | 44.34267 | 19.79619 | 37043 ft | 411 kts | 189° |
| 2026-05-07 12:54 | 44.28588 | 19.78718 | 37043 ft | 411 kts | 189° |
| 2026-05-07 12:54 | 44.22917 | 19.77821 | 37033 ft | 411 kts | 189° |
| 2026-05-07 12:55 | 44.17275 | 19.76927 | 37019 ft | 411 kts | 189° |
| 2026-05-07 12:55 | 44.11583 | 19.76025 | 37009 ft | 411 kts | 189° |
| 2026-05-07 12:56 | 44.05930 | 19.75135 | 37004 ft | 411 kts | 189° |
| 2026-05-07 12:56 | 44.00223 | 19.74238 | 37008 ft | 411 kts | 189° |
| 2026-05-07 12:57 | 43.94586 | 19.73355 | 37013 ft | 411 kts | 189° |
| 2026-05-07 12:57 | 43.88909 | 19.72467 | 37020 ft | 411 kts | 189° |
| 2026-05-07 12:58 | 43.83197 | 19.71575 | 37027 ft | 412 kts | 189° |
| 2026-05-07 12:58 | 43.77528 | 19.70691 | 37033 ft | 412 kts | 189° |
| 2026-05-07 12:59 | 43.71838 | 19.69806 | 37038 ft | 412 kts | 189° |
| 2026-05-07 12:59 | 43.66135 | 19.68921 | 37050 ft | 412 kts | 189° |
| 2026-05-07 13:00 | 43.60467 | 19.68045 | 37062 ft | 412 kts | 189° |
| 2026-05-07 13:00 | 43.54729 | 19.67164 | 37069 ft | 413 kts | 189° |
| 2026-05-07 13:01 | 43.49047 | 19.66289 | 37074 ft | 414 kts | 189° |
| 2026-05-07 13:01 | 43.43299 | 19.65405 | 37077 ft | 414 kts | 189° |
| 2026-05-07 13:02 | 43.37548 | 19.64519 | 37078 ft | 415 kts | 189° |
| 2026-05-07 13:02 | 43.31834 | 19.63640 | 37080 ft | 415 kts | 189° |
| 2026-05-07 13:03 | 43.26129 | 19.62766 | 36661 ft | 407 kts | 190° |
| 2026-05-07 13:03 | 43.23335 | 19.62339 | 36181 ft | 407 kts | 190° |
| 2026-05-07 13:03 | 43.20509 | 19.61905 | 35557 ft | 411 kts | 190° |
| 2026-05-07 13:04 | 43.17664 | 19.61468 | 34851 ft | 416 kts | 190° |
| 2026-05-07 13:04 | 43.14798 | 19.61028 | 34113 ft | 418 kts | 189° |
| 2026-05-07 13:04 | 43.11909 | 19.60585 | 33426 ft | 419 kts | 189° |
| 2026-05-07 13:04 | 43.09024 | 19.60146 | 32760 ft | 418 kts | 189° |
| 2026-05-07 13:05 | 43.06132 | 19.59707 | 32045 ft | 417 kts | 189° |
| 2026-05-07 13:05 | 43.03275 | 19.59295 | 31252 ft | 414 kts | 188° |
| 2026-05-07 13:05 | 43.00434 | 19.59053 | 30524 ft | 412 kts | 185° |
| 2026-05-07 13:05 | 42.97562 | 19.59005 | 29847 ft | 415 kts | 182° |
| 2026-05-07 13:06 | 42.94680 | 19.59101 | 29105 ft | 417 kts | 182° |
| 2026-05-07 13:06 | 42.91767 | 19.59192 | 28384 ft | 415 kts | 182° |
| 2026-05-07 13:06 | 42.88887 | 19.59282 | 27733 ft | 411 kts | 182° |
| 2026-05-07 13:06 | 42.86074 | 19.59370 | 27061 ft | 407 kts | 182° |
| 2026-05-07 13:07 | 42.83239 | 19.59460 | 26413 ft | 403 kts | 182° |
| 2026-05-07 13:07 | 42.80450 | 19.59549 | 25808 ft | 398 kts | 182° |
| 2026-05-07 13:07 | 42.77692 | 19.59637 | 25249 ft | 394 kts | 182° |
| 2026-05-07 13:07 | 42.74987 | 19.59723 | 24777 ft | 392 kts | 182° |
| 2026-05-07 13:08 | 42.72261 | 19.59809 | 24263 ft | 391 kts | 182° |
| 2026-05-07 13:08 | 42.69569 | 19.59894 | 23739 ft | 389 kts | 182° |
| 2026-05-07 13:08 | 42.66866 | 19.59980 | 23188 ft | 388 kts | 183° |
| 2026-05-07 13:08 | 42.64169 | 19.60065 | 22624 ft | 387 kts | 183° |
| 2026-05-07 13:09 | 42.61484 | 19.60151 | 22065 ft | 385 kts | 183° |
| 2026-05-07 13:09 | 42.58814 | 19.60235 | 21522 ft | 383 kts | 183° |
| 2026-05-07 13:09 | 42.56181 | 19.60294 | 21000 ft | 379 kts | 185° |
| 2026-05-07 13:09 | 42.53581 | 19.60136 | 20497 ft | 373 kts | 189° |
| 2026-05-07 13:10 | 42.51033 | 19.59721 | 20004 ft | 367 kts | 193° |
| 2026-05-07 13:10 | 42.48541 | 19.59083 | 19534 ft | 364 kts | 195° |
| 2026-05-07 13:10 | 42.46068 | 19.58405 | 19073 ft | 362 kts | 195° |
| 2026-05-07 13:10 | 42.43602 | 19.57727 | 18614 ft | 358 kts | 195° |
| 2026-05-07 13:11 | 42.41182 | 19.57062 | 18164 ft | 355 kts | 195° |
| 2026-05-07 13:11 | 42.38755 | 19.56396 | 17716 ft | 354 kts | 195° |
| 2026-05-07 13:11 | 42.36369 | 19.55743 | 17234 ft | 350 kts | 195° |
| 2026-05-07 13:11 | 42.33948 | 19.55080 | 16573 ft | 358 kts | 195° |
| 2026-05-07 13:12 | 42.31497 | 19.54412 | 16003 ft | 358 kts | 195° |
| 2026-05-07 13:12 | 42.29050 | 19.53748 | 15474 ft | 355 kts | 195° |
| 2026-05-07 13:12 | 42.26663 | 19.53101 | 15099 ft | 352 kts | 195° |
| 2026-05-07 13:12 | 42.24254 | 19.52447 | 14842 ft | 350 kts | 195° |
| 2026-05-07 13:13 | 42.21869 | 19.51798 | 14559 ft | 349 kts | 195° |
| 2026-05-07 13:13 | 42.19491 | 19.51153 | 14181 ft | 347 kts | 195° |
| 2026-05-07 13:13 | 42.17135 | 19.50514 | 13746 ft | 342 kts | 195° |
| 2026-05-07 13:13 | 42.14814 | 19.49887 | 13290 ft | 340 kts | 195° |
| 2026-05-07 13:14 | 42.12499 | 19.49257 | 12817 ft | 338 kts | 195° |
| 2026-05-07 13:14 | 42.10204 | 19.48626 | 12475 ft | 330 kts | 195° |
| 2026-05-07 13:14 | 42.07996 | 19.48037 | 12397 ft | 314 kts | 195° |
| 2026-05-07 13:14 | 42.05920 | 19.47482 | 12318 ft | 299 kts | 195° |
| 2026-05-07 13:15 | 42.03900 | 19.46934 | 12241 ft | 288 kts | 195° |
| 2026-05-07 13:15 | 42.01956 | 19.46408 | 12171 ft | 285 kts | 196° |
| 2026-05-07 13:15 | 42.00028 | 19.45880 | 12100 ft | 282 kts | 196° |
| 2026-05-07 13:15 | 41.98101 | 19.45515 | 12065 ft | 276 kts | 186° |
| 2026-05-07 13:16 | 41.96181 | 19.45692 | 11856 ft | 280 kts | 176° |
| 2026-05-07 13:16 | 41.94253 | 19.46140 | 11565 ft | 278 kts | 175° |
| 2026-05-07 13:16 | 41.92368 | 19.46611 | 11257 ft | 276 kts | 175° |
| 2026-05-07 13:16 | 41.90490 | 19.47074 | 10926 ft | 274 kts | 175° |
| 2026-05-07 13:17 | 41.88619 | 19.47540 | 10551 ft | 272 kts | 172° |
| 2026-05-07 13:17 | 41.86872 | 19.48516 | 10038 ft | 278 kts | 152° |
| 2026-05-07 13:17 | 41.85290 | 19.50025 | 9509 ft | 278 kts | 148° |
| 2026-05-07 13:17 | 41.83785 | 19.51553 | 8919 ft | 274 kts | 148° |
| 2026-05-07 13:18 | 41.82246 | 19.53072 | 8261 ft | 272 kts | 148° |
| 2026-05-07 13:18 | 41.80718 | 19.54526 | 7593 ft | 269 kts | 149° |
| 2026-05-07 13:18 | 41.79254 | 19.56025 | 6920 ft | 270 kts | 136° |
| 2026-05-07 13:18 | 41.78176 | 19.58089 | 6289 ft | 269 kts | 123° |
| 2026-05-07 13:19 | 41.77292 | 19.60249 | 5687 ft | 266 kts | 121° |
| 2026-05-07 13:19 | 41.76322 | 19.62307 | 5040 ft | 260 kts | 137° |
| 2026-05-07 13:19 | 41.74848 | 19.63595 | 4486 ft | 253 kts | 160° |
| 2026-05-07 13:19 | 41.73197 | 19.64382 | 4105 ft | 248 kts | 164° |
| 2026-05-07 13:20 | 41.71589 | 19.65074 | 4010 ft | 239 kts | 160° |
| 2026-05-07 13:20 | 41.70062 | 19.65975 | 4012 ft | 240 kts | 156° |
| 2026-05-07 13:20 | 41.68597 | 19.66923 | 4005 ft | 229 kts | 155° |
| 2026-05-07 13:20 | 41.67191 | 19.67836 | 4005 ft | 220 kts | 156° |
| 2026-05-07 13:21 | 41.65761 | 19.68576 | 4008 ft | 220 kts | 166° |
| 2026-05-07 13:21 | 41.64285 | 19.68995 | 3999 ft | 212 kts | 172° |
| 2026-05-07 13:21 | 41.62843 | 19.69238 | 3873 ft | 204 kts | 175° |
| 2026-05-07 13:21 | 41.61442 | 19.69423 | 3620 ft | 204 kts | 175° |
| 2026-05-07 13:22 | 41.60050 | 19.69599 | 3444 ft | 197 kts | 175° |
| 2026-05-07 13:22 | 41.58698 | 19.69772 | 3204 ft | 193 kts | 175° |
| 2026-05-07 13:22 | 41.57377 | 19.69943 | 2953 ft | 189 kts | 175° |
| 2026-05-07 13:22 | 41.56078 | 19.70115 | 2709 ft | 186 kts | 175° |
| 2026-05-07 13:23 | 41.54805 | 19.70284 | 2464 ft | 182 kts | 175° |
| 2026-05-07 13:23 | 41.53547 | 19.70452 | 2210 ft | 178 kts | 175° |
| 2026-05-07 13:23 | 41.52352 | 19.70611 | 1967 ft | 167 kts | 175° |
| 2026-05-07 13:23 | 41.51250 | 19.70758 | 1746 ft | 155 kts | 175° |
| 2026-05-07 13:24 | 41.50210 | 19.70896 | 1570 ft | 142 kts | 175° |
| 2026-05-07 13:24 | 41.49271 | 19.71021 | 1369 ft | 132 kts | 175° |
| 2026-05-07 13:24 | 41.48360 | 19.71141 | 1209 ft | 133 kts | 175° |
| 2026-05-07 13:24 | 41.47431 | 19.71264 | 1042 ft | 135 kts | 175° |
| 2026-05-07 13:25 | 41.46487 | 19.71391 | 868 ft | 136 kts | 175° |
| 2026-05-07 13:25 | 41.45549 | 19.71520 | 706 ft | 136 kts | 175° |
| 2026-05-07 13:25 | 41.44603 | 19.71644 | 522 ft | 136 kts | 175° |
| 2026-05-07 13:25 | 41.43663 | 19.71771 | 344 ft | 136 kts | 175° |
| 2026-05-07 13:26 | 41.42714 | 19.71896 | 165 ft | 135 kts | 175° |
| 2026-05-07 13:26 | 41.41843 | 19.72008 | 128 ft | 107 kts | 174° |
| 2026-05-07 13:26 | 41.41275 | 19.72082 | 135 ft | 60 kts | 174° |
| 2026-05-07 13:26 | 41.40885 | 19.72136 | 139 ft | 50 kts | 174° |
| 2026-05-07 13:27 | 41.40689 | 19.72130 | 140 ft | 18 kts | 238° |
| 2026-05-07 13:27 | 41.40656 | 19.71963 | 139 ft | 19 kts | 256° |
| 2026-05-07 13:27 | 41.40635 | 19.71784 | 137 ft | 19 kts | 291° |
| 2026-05-07 13:27 | 41.40760 | 19.71740 | 136 ft | 19 kts | 354° |
| 2026-05-07 13:28 | 41.40895 | 19.71722 | 136 ft | 19 kts | 354° |
| 2026-05-07 13:28 | 41.41031 | 19.71704 | 136 ft | 19 kts | 354° |
| 2026-05-07 13:28 | 41.41169 | 19.71685 | 136 ft | 20 kts | 354° |
| 2026-05-07 13:28 | 41.41314 | 19.71666 | 133 ft | 21 kts | 354° |
| 2026-05-07 13:29 | 41.41467 | 19.71645 | 132 ft | 22 kts | 354° |
| 2026-05-07 13:29 | 41.41624 | 19.71624 | 130 ft | 23 kts | 354° |
| 2026-05-07 13:29 | 41.41788 | 19.71602 | 129 ft | 23 kts | 354° |
| 2026-05-07 13:29 | 41.41953 | 19.71580 | 126 ft | 24 kts | 355° |
| 2026-05-07 13:30 | 41.42115 | 19.71562 | 125 ft | 15 kts | 354° |
| 2026-05-07 13:30 | 41.42160 | 19.71555 | 125 ft | 5 kts | 354° |
| 2026-05-07 13:30 | 41.42184 | 19.71518 | 125 ft | 6 kts | 270° |
| 2026-05-07 13:30 | 41.42182 | 19.71488 | 125 ft | 0 kts | 265° |